GABSDFOO

Guest
Details From GABS - Bamako Senou
To DFOO - BOBO DIOULASSO
Flight Number -
Tags generated
Created
Modified
Stats Distance 228 nm / 423 km
Max Altitude 27,800 ft / 8,473 m
Waypoints 4
Social Downloads 0
Likes 0
Share VATSIM

Download

Looking for another format? Having issues loading an existing format? Contact us
Advertisement - Login to hide

Notes

Basic altitude profile: - Ascent Rate: 2500ft/min - Ascent Speed: 250kts - Cruise Altitude: 35000ft - Cruise Speed: 420kts - Descent Rate: 1500ft/min - Descent Speed: 250kts Options: - Use NATs: yes - Use PACOTS: yes - Use low airways: yes - Use high airways: yes

Route

GABS MINVO A601F EBSUD DFOO

ID Type Via Altitude Latitude Longitude Leg Dist Tot Dist Heading (true) Name
O GABS APT - 0 ft / 0 m 12.53354˚ -7.94994˚ - 0 nm - Bamako Senou
MINVO FIX - 27,800 ft / 8,473 m 12.05667˚ -6.66250˚ 80 nm 80 nm 111° / 111° -
EBSUD FIX A601F (AWY-LO) 11,300 ft / 3,444 m 11.50194˚ -5.24833˚ 89 nm 170 nm 112° / 112° -
O DFOO APT - 0 ft / 0 m 11.16006˚ -4.33097˚ 57 nm 228 nm 111° / 111° BOBO DIOULASSO

Altitude Profile

Advertisement - Login to hide

Weather


0- 5 10 15 20 25 30 35+ Temperature / ° C

Clouds and Precipitation
Forecast for 2018-05-24 00:00 UTC. Updated 2 hours ago

Ground ~20,000 ft ~40,000 ft Winds

GABS

Details ICAO GABS (BKO)
Name Bamako Senou
Region Mali
Timezone Africa/Bamako (UTC+0.0)
Stats Elevation 1,246 ft / 380 m (AMSL)
Location 12.533544° -7.949943°
Runways 1
Magnetic Variation 4.116° W

METAR

GABS 240100Z 20004KT 9999 FEW030 FEW040CB 30/21 Q1014 NOSIG

Decode

TAF

TAF GABS 232300Z 2400/2506 22006KT 9999 SCT030 PROB30 TEMPO 2400/2402 TSRA SCT030 FEW040CB TEMPO 2416/2424 TSRA BKN030 FEW040CB

Decode

Departure Runways

ID Width Length Bearing (true) Bearing (mag) Surface Threshold Offset Overrun Length
06 148 ft / 45 m 8,888 ft / 2,709 m 56.51° 60.63° Asphalt 0 ft / 0 m 327 ft / 100 m
24 148 ft / 45 m 8,888 ft / 2,709 m 236.51° 240.63° Asphalt 0 ft / 0 m 327 ft / 100 m

DFOO

Details ICAO DFOO (BOY)
Name BOBO DIOULASSO
Region Burkina Faso
Timezone Africa/Ouagadougou (UTC+0.0)
Stats Elevation 1,511 ft / 461 m (AMSL)
Location 11.160058° -4.330970°
Runways 1
Magnetic Variation 3.267° W

METAR

DFOO 240000Z 22006KT CAVOK 27/21 Q1014

Decode

TAF

TAF DFOO 232300Z 2400/2424 22010KT CAVOK TEMPO 2412/2420 10025G40KT 2500 SQ BLSA TSRA SCT020 SCT033CB

Decode

Destination Runways

ID Width Length Bearing (true) Bearing (mag) Surface Threshold Offset Overrun Length
06 148 ft / 45 m 10,757 ft / 3,279 m 52.66° 55.93° Asphalt 0 ft / 0 m 262 ft / 80 m
24 148 ft / 45 m 10,757 ft / 3,279 m 232.67° 235.94° Asphalt 0 ft / 0 m 262 ft / 80 m

Popular Alternatives